createdAt,value
2023-11-05T00:02:26.502Z,4.30
2023-11-05T00:04:54.030Z,4.03
2023-11-05T00:07:21.392Z,3.10
2023-11-05T00:09:48.557Z,3.87
2023-11-05T00:12:16.054Z,3.20
2023-11-05T00:14:43.352Z,3.73
2023-11-05T00:17:10.933Z,3.20
2023-11-05T00:19:38.341Z,3.30
2023-11-05T00:22:05.567Z,3.27
2023-11-05T00:24:32.730Z,3.53
2023-11-05T00:26:59.826Z,3.43
2023-11-05T00:29:26.927Z,2.90
2023-11-05T00:31:55.386Z,3.07
2023-11-05T00:34:22.740Z,3.30
2023-11-05T00:36:49.894Z,4.13
2023-11-05T00:39:17.079Z,4.27
2023-11-05T00:41:44.185Z,5.30
2023-11-05T00:44:12.362Z,4.63
2023-11-05T00:46:39.726Z,4.00
2023-11-05T00:49:08.427Z,3.70
2023-11-05T00:51:36.109Z,3.87
2023-11-05T00:54:03.366Z,4.10
2023-11-05T00:56:30.545Z,2.80
2023-11-05T00:58:57.808Z,3.40
2023-11-05T01:01:25.026Z,3.23
2023-11-05T01:03:53.466Z,3.00
2023-11-05T01:06:20.910Z,3.60
2023-11-05T01:08:48.784Z,3.10
2023-11-05T01:11:16.137Z,3.23
2023-11-05T01:13:43.726Z,3.17
2023-11-05T01:16:12.165Z,3.43
2023-11-05T01:18:39.361Z,2.93
2023-11-05T01:21:07.034Z,2.77
2023-11-05T01:23:34.311Z,2.80
2023-11-05T01:26:01.444Z,2.90
2023-11-05T01:28:28.791Z,3.00
2023-11-05T01:30:56.084Z,3.07
2023-11-05T01:33:23.757Z,2.77
2023-11-05T01:35:50.927Z,2.73
2023-11-05T01:38:18.383Z,2.53
2023-11-05T01:40:45.697Z,3.37
2023-11-05T01:43:13.066Z,4.33
2023-11-05T01:45:40.312Z,3.90
2023-11-05T01:48:07.737Z,3.60
2023-11-05T01:50:35.402Z,3.17
2023-11-05T01:53:03.810Z,2.80
2023-11-05T01:55:31.309Z,3.40
2023-11-05T01:57:58.449Z,3.37
2023-11-05T02:00:25.826Z,3.67
2023-11-05T02:02:53.196Z,2.63
2023-11-05T02:05:20.803Z,3.23
2023-11-05T02:07:48.258Z,3.40
2023-11-05T02:10:15.553Z,2.73
2023-11-05T02:13:04.242Z,2.97
2023-11-05T02:15:32.351Z,3.63
2023-11-05T02:17:59.886Z,3.30
2023-11-05T02:20:47.422Z,3.67
2023-11-05T02:23:18.930Z,3.33
2023-11-05T02:25:46.443Z,4.07
2023-11-05T02:28:14.180Z,3.30
2023-11-05T02:30:41.421Z,2.77
2023-11-05T02:33:09.813Z,2.70
2023-11-05T02:35:36.935Z,2.47
2023-11-05T02:38:04.152Z,2.47
2023-11-05T02:40:31.386Z,2.30
2023-11-05T02:42:58.694Z,2.70
2023-11-05T02:45:25.914Z,2.60
2023-11-05T02:47:53.592Z,2.20
2023-11-05T02:50:20.955Z,2.93
2023-11-05T02:52:48.084Z,2.57
2023-11-05T02:55:15.325Z,3.70
2023-11-05T02:57:43.140Z,6.70
2023-11-05T03:00:15.259Z,10.00
2023-11-05T03:02:42.876Z,9.27
2023-11-05T03:05:11.647Z,6.67
2023-11-05T03:07:38.984Z,4.23
2023-11-05T03:10:06.513Z,3.63
2023-11-05T03:12:33.968Z,4.97
2023-11-05T03:15:01.233Z,3.40
2023-11-05T03:17:32.367Z,3.50
2023-11-05T03:20:00.249Z,3.10
2023-11-05T03:22:27.379Z,2.77
2023-11-05T03:24:54.833Z,3.00
2023-11-05T03:27:22.059Z,2.17
2023-11-05T03:29:49.289Z,2.30
2023-11-05T03:32:16.634Z,2.43
2023-11-05T03:34:44.229Z,2.43
2023-11-05T03:37:11.477Z,2.20
2023-11-05T03:39:38.813Z,2.43
2023-11-05T03:42:08.160Z,2.83
2023-11-05T03:44:36.159Z,2.10
2023-11-05T03:47:03.958Z,2.87
2023-11-05T03:49:31.268Z,2.60
2023-11-05T03:51:59.580Z,2.33
2023-11-05T03:54:26.919Z,2.13
2023-11-05T03:56:56.184Z,2.60
2023-11-05T03:59:23.418Z,2.40
2023-11-05T04:01:51.379Z,2.20
2023-11-05T04:04:18.775Z,2.70
2023-11-05T04:06:47.182Z,2.50
2023-11-05T04:09:15.794Z,2.53
2023-11-05T04:11:43.126Z,2.37
2023-11-05T04:14:10.370Z,2.83
2023-11-05T04:16:37.553Z,2.80
2023-11-05T04:19:04.897Z,1.60
2023-11-05T04:21:32.324Z,2.53
2023-11-05T04:23:59.419Z,2.10
2023-11-05T04:26:26.523Z,2.83
2023-11-05T04:28:53.818Z,2.73
2023-11-05T04:31:21.002Z,2.97
2023-11-05T04:33:48.335Z,2.93
2023-11-05T04:36:15.553Z,2.87
2023-11-05T04:38:43.230Z,3.67
2023-11-05T04:41:10.559Z,3.33
2023-11-05T04:43:38.186Z,3.80
2023-11-05T04:46:05.413Z,3.60
2023-11-05T04:48:32.588Z,3.40
2023-11-05T04:50:59.827Z,3.40
2023-11-05T04:53:29.107Z,3.63
2023-11-05T04:55:56.194Z,4.37
2023-11-05T04:58:23.378Z,3.13
2023-11-05T05:00:50.622Z,3.73
2023-11-05T05:03:19.393Z,3.63
2023-11-05T05:05:46.736Z,3.77
2023-11-05T05:08:14.397Z,2.60
2023-11-05T05:10:41.599Z,2.57
2023-11-05T05:13:09.024Z,3.30
2023-11-05T05:15:36.216Z,3.23
2023-11-05T05:18:03.601Z,2.50
2023-11-05T05:20:30.694Z,2.37
2023-11-05T05:22:57.772Z,2.83
2023-11-05T05:25:25.663Z,2.83
2023-11-05T05:27:52.944Z,3.40
2023-11-05T05:30:20.264Z,3.60
2023-11-05T05:32:47.997Z,3.17
2023-11-05T05:35:15.096Z,3.53
2023-11-05T05:37:42.290Z,2.90
2023-11-05T05:40:11.063Z,3.70
2023-11-05T05:42:38.474Z,3.37
2023-11-05T05:45:06.140Z,4.03
2023-11-05T05:47:33.562Z,3.80
2023-11-05T05:50:00.845Z,5.07
2023-11-05T05:52:28.597Z,5.40
2023-11-05T05:54:55.993Z,3.50
2023-11-05T05:57:23.516Z,5.27
2023-11-05T05:59:50.718Z,5.73
2023-11-05T06:02:17.811Z,5.10
2023-11-05T06:04:44.996Z,4.23
2023-11-05T06:07:12.274Z,5.40
2023-11-05T06:09:39.830Z,4.90
2023-11-05T06:12:08.258Z,3.87
2023-11-05T06:14:41.316Z,4.17
2023-11-05T06:17:14.314Z,3.73
2023-11-05T06:19:41.872Z,3.47
2023-11-05T06:22:09.019Z,3.83
2023-11-05T06:24:40.736Z,4.37
2023-11-05T06:27:08.656Z,4.30
2023-11-05T06:29:36.349Z,3.30
2023-11-05T06:32:05.148Z,4.50
2023-11-05T06:34:32.664Z,4.47
2023-11-05T06:37:08.557Z,5.40
2023-11-05T06:39:36.316Z,4.47
2023-11-05T06:42:03.564Z,4.40
2023-11-05T06:44:31.650Z,4.27
2023-11-05T06:46:59.026Z,3.67
2023-11-05T06:49:26.322Z,4.10
2023-11-05T06:51:53.458Z,4.53
2023-11-05T06:54:20.704Z,4.53
2023-11-05T06:56:47.796Z,4.47
2023-11-05T06:59:15.447Z,4.33
2023-11-05T07:01:46.125Z,4.20
2023-11-05T07:04:13.437Z,4.20
2023-11-05T07:06:40.872Z,4.47
2023-11-05T07:09:09.429Z,4.70
2023-11-05T07:11:37.872Z,4.40
2023-11-05T07:14:05.088Z,5.03
2023-11-05T07:16:32.257Z,5.83
2023-11-05T07:19:20.200Z,5.93
2023-11-05T07:21:47.416Z,6.30
2023-11-05T07:24:18.210Z,5.53
2023-11-05T07:26:45.469Z,4.67
2023-11-05T07:29:14.987Z,5.70
2023-11-05T07:31:43.427Z,4.40
2023-11-05T07:34:12.730Z,4.90
2023-11-05T07:36:41.425Z,4.23
2023-11-05T07:39:11.339Z,5.30
2023-11-05T07:41:39.355Z,4.87
2023-11-05T07:44:07.189Z,4.47
2023-11-05T07:46:37.095Z,4.87
2023-11-05T07:49:07.464Z,4.70
2023-11-05T07:51:34.797Z,4.63
2023-11-05T07:54:03.742Z,4.57
2023-11-05T07:56:30.982Z,3.03
2023-11-05T07:58:58.224Z,4.57
2023-11-05T08:01:26.378Z,4.20
2023-11-05T08:03:53.674Z,3.93
2023-11-05T08:06:20.840Z,3.00
2023-11-05T08:08:49.347Z,3.50
2023-11-05T08:11:16.635Z,3.37
2023-11-05T08:13:44.906Z,2.80
2023-11-05T08:16:13.311Z,3.73
2023-11-05T08:18:42.859Z,2.80
2023-11-05T08:21:10.281Z,3.10
2023-11-05T08:23:38.202Z,2.70
2023-11-05T08:26:07.197Z,3.83
2023-11-05T08:28:34.486Z,2.93
2023-11-05T08:31:02.565Z,2.80
2023-11-05T08:33:30.644Z,3.00
2023-11-05T08:35:57.822Z,2.97
2023-11-05T08:38:27.118Z,4.23
2023-11-05T08:40:54.727Z,3.07
2023-11-05T08:43:21.941Z,3.03
2023-11-05T08:45:51.075Z,3.40
2023-11-05T08:48:19.632Z,3.40
2023-11-05T08:50:47.069Z,3.60
2023-11-05T08:53:14.470Z,3.00
2023-11-05T08:55:43.645Z,4.37
2023-11-05T08:58:11.920Z,4.20
2023-11-05T09:00:39.120Z,5.80
2023-11-05T09:03:08.441Z,5.13
2023-11-05T09:05:36.074Z,3.40
2023-11-05T09:08:03.458Z,4.43
2023-11-05T09:10:31.558Z,3.37
2023-11-05T09:13:01.073Z,3.47
2023-11-05T09:15:37.340Z,3.07
2023-11-05T09:18:04.927Z,2.50
2023-11-05T09:20:33.953Z,2.73
2023-11-05T09:23:02.594Z,2.40
2023-11-05T09:25:30.321Z,1.87
2023-11-05T09:27:57.989Z,2.10
2023-11-05T09:30:25.347Z,2.63
2023-11-05T09:32:52.831Z,2.33
2023-11-05T09:35:20.275Z,2.20
2023-11-05T09:37:48.593Z,2.23
2023-11-05T09:40:18.073Z,2.10
2023-11-05T09:43:07.185Z,2.37
2023-11-05T09:52:18.100Z,2.90
2023-11-05T09:54:45.827Z,2.23
2023-11-05T09:57:13.311Z,2.50
2023-11-05T09:59:48.862Z,2.57
2023-11-05T10:02:19.407Z,2.70
2023-11-05T10:04:47.095Z,4.67
2023-11-05T10:07:41.794Z,2.90
2023-11-05T10:10:10.198Z,3.40
2023-11-05T10:12:37.715Z,2.00
2023-11-05T10:15:07.804Z,3.00
2023-11-05T10:17:36.309Z,2.73
2023-11-05T10:20:04.336Z,2.60
2023-11-05T10:22:31.718Z,2.00
2023-11-05T10:24:58.867Z,1.83
2023-11-05T10:27:31.460Z,2.70
2023-11-05T10:30:00.883Z,2.10
2023-11-05T10:32:33.429Z,2.20
2023-11-05T10:35:02.420Z,2.30
2023-11-05T10:37:30.870Z,1.90
2023-11-05T10:39:58.481Z,2.57
2023-11-05T10:42:26.418Z,2.17
2023-11-05T10:44:54.776Z,2.70
2023-11-05T10:47:22.745Z,2.33
2023-11-05T10:49:56.560Z,2.73
2023-11-05T10:52:32.406Z,1.93
2023-11-05T10:55:09.690Z,1.70
2023-11-05T10:57:50.463Z,1.97
2023-11-05T11:00:17.565Z,2.17
2023-11-05T11:02:53.703Z,2.33
2023-11-05T11:05:46.048Z,2.90
2023-11-05T11:08:22.906Z,2.10
2023-11-05T11:10:51.339Z,1.97
2023-11-05T11:13:30.438Z,2.07
2023-11-05T11:16:02.902Z,3.37
2023-11-05T11:18:34.207Z,2.47
2023-11-05T11:21:04.909Z,2.43
2023-11-05T11:23:37.558Z,1.90
2023-11-05T11:26:06.350Z,1.90
2023-11-05T11:28:34.767Z,2.13
2023-11-05T11:31:03.292Z,2.17
2023-11-05T11:33:33.202Z,2.10
2023-11-05T11:36:00.537Z,2.20
2023-11-05T11:38:27.745Z,1.97
2023-11-05T11:40:55.281Z,2.23
2023-11-05T11:43:26.427Z,1.50
2023-11-05T11:45:54.935Z,2.67
2023-11-05T11:48:27.828Z,2.07
2023-11-05T11:51:11.788Z,1.60
2023-11-05T11:53:42.092Z,1.93
2023-11-05T11:56:10.079Z,1.83
2023-11-05T11:58:42.221Z,1.83
2023-11-05T12:01:15.300Z,1.87
2023-11-05T12:03:44.727Z,2.03
2023-11-05T12:06:15.237Z,2.17
2023-11-05T12:08:44.673Z,1.70
2023-11-05T12:11:14.971Z,2.00
2023-11-05T12:13:43.834Z,2.27
2023-11-05T12:16:17.196Z,2.60
2023-11-05T12:18:46.163Z,1.97
2023-11-05T12:21:15.446Z,2.40
2023-11-05T12:23:43.718Z,3.00
2023-11-05T12:26:13.178Z,2.67
2023-11-05T12:28:42.305Z,2.37
2023-11-05T12:31:09.615Z,1.93
2023-11-05T12:33:38.690Z,3.23
2023-11-05T12:36:08.689Z,2.47
2023-11-05T12:38:36.497Z,2.03
2023-11-05T12:41:04.827Z,2.40
2023-11-05T12:43:32.605Z,2.27
2023-11-05T12:46:00.984Z,2.37
2023-11-05T12:48:32.758Z,1.80
2023-11-05T12:51:02.880Z,3.07
2023-11-05T12:53:33.053Z,2.17
2023-11-05T12:56:06.290Z,1.70
2023-11-05T12:58:35.955Z,1.90
2023-11-05T13:01:06.801Z,1.60
2023-11-05T13:03:36.498Z,2.10
2023-11-05T13:06:09.844Z,2.57
2023-11-05T13:08:38.511Z,1.80
2023-11-05T13:11:07.409Z,2.10
2023-11-05T13:13:36.394Z,2.93
2023-11-05T13:16:04.827Z,3.47
2023-11-05T13:18:32.510Z,3.97
2023-11-05T13:21:03.456Z,3.10
2023-11-05T13:23:30.941Z,2.60
2023-11-05T13:26:00.162Z,3.03
2023-11-05T13:28:30.392Z,3.50
2023-11-05T13:30:59.211Z,2.93
2023-11-05T13:33:28.729Z,2.90
2023-11-05T13:35:56.076Z,2.70
2023-11-05T13:38:23.625Z,2.70
2023-11-05T13:40:53.466Z,2.37
2023-11-05T13:43:23.379Z,3.53
2023-11-05T13:45:51.727Z,2.87
2023-11-05T13:48:20.688Z,2.83
2023-11-05T13:50:49.745Z,3.00
2023-11-05T13:53:17.127Z,2.87
2023-11-05T13:55:47.364Z,2.03
2023-11-05T13:58:17.334Z,3.17
2023-11-05T14:00:46.618Z,2.40
2023-11-05T14:03:14.134Z,2.87
2023-11-05T14:05:42.024Z,2.70
2023-11-05T14:08:09.537Z,2.73
2023-11-05T14:10:40.247Z,4.00
2023-11-05T14:13:08.901Z,4.63
2023-11-05T14:41:45.824Z,4.30
2023-11-05T14:44:16.712Z,3.50
2023-11-05T14:46:44.628Z,3.10
2023-11-05T14:49:15.575Z,3.00
2023-11-05T14:51:42.779Z,4.30
2023-11-05T14:54:12.606Z,4.20
2023-11-05T14:56:41.031Z,4.50
2023-11-05T14:59:09.223Z,5.27
2023-11-05T15:01:39.425Z,4.40
2023-11-05T15:04:07.117Z,5.60
2023-11-05T15:06:34.535Z,5.87
2023-11-05T15:09:05.129Z,6.00
2023-11-05T15:11:33.096Z,6.37
2023-11-05T15:14:01.413Z,7.83
2023-11-05T15:16:30.981Z,6.97
2023-11-05T15:19:01.449Z,6.70
2023-11-05T15:21:29.346Z,7.13
2023-11-05T15:23:56.658Z,7.10
2023-11-05T15:26:25.451Z,7.30
2023-11-05T15:28:54.386Z,29.33
2023-11-05T15:31:29.331Z,29.03
2023-11-05T15:34:02.196Z,15.13
2023-11-05T15:36:30.376Z,11.50
2023-11-05T15:38:57.984Z,8.20
2023-11-05T15:41:25.297Z,10.43
2023-11-05T15:43:52.948Z,9.83
2023-11-05T15:46:20.369Z,10.13
2023-11-05T15:48:48.309Z,9.77
2023-11-05T15:51:16.812Z,8.40
2023-11-05T15:53:44.123Z,8.70
2023-11-05T15:56:11.340Z,8.40
2023-11-05T15:58:38.519Z,8.83
2023-11-05T16:01:05.830Z,8.97
2023-11-05T16:03:34.736Z,9.40
2023-11-05T16:06:02.592Z,8.87
2023-11-05T16:08:30.201Z,8.20
2023-11-05T16:10:57.592Z,7.03
2023-11-05T16:13:24.739Z,7.63
2023-11-05T16:15:53.765Z,8.17
2023-11-05T16:18:21.855Z,6.33
2023-11-05T16:20:49.939Z,5.90
2023-11-05T16:23:22.671Z,5.70
2023-11-05T16:25:50.587Z,8.20
2023-11-05T16:28:19.034Z,9.93
2023-11-05T16:30:49.939Z,15.93
2023-11-05T16:33:17.368Z,13.77
2023-11-05T16:35:46.604Z,11.63
2023-11-05T16:38:13.918Z,13.67
2023-11-05T16:40:41.750Z,14.13
2023-11-05T16:43:09.546Z,14.63
2023-11-05T16:45:36.699Z,15.57
2023-11-05T16:48:04.221Z,15.57
2023-11-05T16:50:31.601Z,13.77
2023-11-05T16:52:58.835Z,12.83
2023-11-05T16:55:28.360Z,8.20
2023-11-05T16:57:56.378Z,8.17
2023-11-05T17:00:25.033Z,10.27
2023-11-05T17:02:53.409Z,10.30
2023-11-05T17:05:20.956Z,13.13
2023-11-05T17:07:52.771Z,12.43
2023-11-05T17:10:21.026Z,13.20
2023-11-05T17:13:01.306Z,15.30
2023-11-05T17:15:28.970Z,14.10
2023-11-05T17:17:56.142Z,10.40
2023-11-05T17:20:26.245Z,11.07
2023-11-05T17:22:54.639Z,11.80
2023-11-05T17:25:21.802Z,10.60
2023-11-05T17:27:49.045Z,16.80
2023-11-05T17:30:17.746Z,15.50
2023-11-05T17:32:45.471Z,15.63
2023-11-05T17:35:12.809Z,10.53
2023-11-05T17:37:41.559Z,7.63
2023-11-05T17:40:15.839Z,7.57
2023-11-05T17:42:43.268Z,6.60
2023-11-05T17:45:10.796Z,7.60
2023-11-05T17:47:43.445Z,6.93
2023-11-05T17:50:15.742Z,8.13
2023-11-05T17:53:03.858Z,6.63
2023-11-05T17:55:52.231Z,8.47
2023-11-05T17:58:21.396Z,7.50
2023-11-05T18:00:48.617Z,7.23
2023-11-05T18:03:29.819Z,6.73
2023-11-05T18:06:27.041Z,13.60
2023-11-05T18:09:24.136Z,8.87
2023-11-05T18:12:02.930Z,8.83
2023-11-05T18:14:30.170Z,8.43
2023-11-05T18:16:59.453Z,8.93
2023-11-05T18:19:27.767Z,6.67
2023-11-05T18:21:55.157Z,6.53
2023-11-05T18:24:25.964Z,6.20
2023-11-05T18:26:53.564Z,6.27
2023-11-05T18:29:20.736Z,7.73
2023-11-05T18:31:47.937Z,6.07
2023-11-05T18:34:15.222Z,5.17
2023-11-05T18:36:43.524Z,6.03
2023-11-05T18:39:11.003Z,6.27
2023-11-05T18:41:45.151Z,6.13
2023-11-05T18:44:13.071Z,5.53
2023-11-05T18:46:42.130Z,6.83
2023-11-05T18:49:12.885Z,6.80
2023-11-05T18:51:40.106Z,6.50
2023-11-05T18:54:11.542Z,6.80
2023-11-05T18:56:39.994Z,6.83
2023-11-05T18:59:09.329Z,7.37
2023-11-05T19:01:37.716Z,6.57
2023-11-05T19:04:05.459Z,7.17
2023-11-05T19:06:33.129Z,7.07
2023-11-05T19:09:01.057Z,7.57
2023-11-05T19:11:28.273Z,7.73
2023-11-05T19:14:15.997Z,10.17
2023-11-05T19:16:46.985Z,7.80
2023-11-05T19:19:14.442Z,6.97
2023-11-05T19:21:43.461Z,8.40
2023-11-05T19:24:11.620Z,7.83
2023-11-05T19:26:38.871Z,7.73
2023-11-05T19:29:06.686Z,6.57
2023-11-05T19:31:34.608Z,10.03
2023-11-05T19:34:03.874Z,7.57
2023-11-05T19:36:32.242Z,8.60
2023-11-05T19:39:00.447Z,7.13
2023-11-05T19:41:35.222Z,7.90
2023-11-05T19:44:02.575Z,11.80
2023-11-05T19:46:30.421Z,9.03
2023-11-05T19:48:57.679Z,6.77
2023-11-05T19:51:24.873Z,7.30
2023-11-05T19:53:52.093Z,7.57
2023-11-05T19:56:26.287Z,7.47
2023-11-05T19:58:57.030Z,5.10
2023-11-05T20:01:24.476Z,5.03
2023-11-05T20:03:51.829Z,4.60
2023-11-05T20:06:19.992Z,4.93
2023-11-05T20:08:48.987Z,4.70
2023-11-05T20:11:18.795Z,7.10
2023-11-05T20:13:47.028Z,8.00
2023-11-05T20:16:16.333Z,6.27
2023-11-05T20:18:45.406Z,6.37
2023-11-05T20:21:16.225Z,5.87
2023-11-05T20:23:44.094Z,5.07
2023-11-05T20:26:13.483Z,6.00
2023-11-05T20:28:42.240Z,5.40
2023-11-05T20:31:11.042Z,5.23
2023-11-05T20:33:38.264Z,5.43
2023-11-05T20:36:07.049Z,5.10
2023-11-05T20:38:34.569Z,5.10
2023-11-05T20:41:01.740Z,7.90
2023-11-05T20:43:28.990Z,5.73
2023-11-05T20:45:56.345Z,5.83
2023-11-05T20:48:25.225Z,4.53
2023-11-05T20:50:53.013Z,4.50
2023-11-05T20:53:21.820Z,4.37
2023-11-05T20:55:50.135Z,6.17
2023-11-05T20:58:17.775Z,6.77
2023-11-05T21:00:45.017Z,8.07
2023-11-05T21:03:12.453Z,6.17
2023-11-05T21:05:42.006Z,6.70
2023-11-05T21:08:09.300Z,8.77
2023-11-05T21:10:48.744Z,7.17
2023-11-05T21:13:19.733Z,5.67
2023-11-05T21:15:47.500Z,4.70
2023-11-05T21:18:16.186Z,4.47
2023-11-05T21:20:43.549Z,6.00
2023-11-05T21:23:10.850Z,8.27
2023-11-05T21:25:43.404Z,4.83
2023-11-05T21:28:10.578Z,6.80
2023-11-05T21:30:39.636Z,5.13
2023-11-05T21:33:08.223Z,3.50
2023-11-05T21:35:36.884Z,3.63
2023-11-05T21:38:04.734Z,3.50
2023-11-05T21:40:32.269Z,3.47
2023-11-05T21:43:00.647Z,3.93
2023-11-05T21:45:32.320Z,3.60
2023-11-05T21:47:59.805Z,4.67
2023-11-05T21:50:27.203Z,4.03
2023-11-05T21:52:55.650Z,3.87
2023-11-05T21:55:23.047Z,3.03
2023-11-05T21:57:50.185Z,3.50
2023-11-05T22:00:22.488Z,3.33
2023-11-05T22:02:50.999Z,4.73
2023-11-05T22:05:19.646Z,4.53
2023-11-05T22:07:48.445Z,3.60
2023-11-05T22:10:16.646Z,4.20
2023-11-05T22:12:44.495Z,4.07
2023-11-05T22:15:11.702Z,4.03
2023-11-05T22:17:39.960Z,4.63
2023-11-05T22:20:08.319Z,5.77
2023-11-05T22:22:35.429Z,6.03
2023-11-05T22:25:02.526Z,9.00
2023-11-05T22:27:30.719Z,7.03
2023-11-05T22:29:58.189Z,5.33
2023-11-05T22:32:26.532Z,4.40
2023-11-05T22:34:53.787Z,4.37
2023-11-05T22:37:24.912Z,4.10
2023-11-05T22:39:54.780Z,3.57
2023-11-05T22:42:23.015Z,4.07
2023-11-05T22:44:51.143Z,3.70
2023-11-05T22:47:20.517Z,5.13
2023-11-05T22:49:50.879Z,4.10
2023-11-05T22:52:18.031Z,3.90
2023-11-05T22:54:45.654Z,3.30
2023-11-05T22:57:13.944Z,3.43
2023-11-05T22:59:42.762Z,3.63
2023-11-05T23:02:09.941Z,3.80
2023-11-05T23:04:37.052Z,2.87
2023-11-05T23:07:04.411Z,3.80
2023-11-05T23:09:35.800Z,3.30
2023-11-05T23:12:06.456Z,3.57
2023-11-05T23:14:34.219Z,3.40
2023-11-05T23:17:02.997Z,3.00
2023-11-05T23:19:36.298Z,3.70
2023-11-05T23:22:06.567Z,2.57
2023-11-05T23:24:34.803Z,3.23
2023-11-05T23:27:06.936Z,3.17
2023-11-05T23:29:34.197Z,3.00
2023-11-05T23:32:04.594Z,2.93
2023-11-05T23:34:32.148Z,2.60
2023-11-05T23:37:03.234Z,3.10
2023-11-05T23:39:31.642Z,4.40
2023-11-05T23:42:00.236Z,6.13
2023-11-05T23:44:28.430Z,4.40
2023-11-05T23:46:56.006Z,3.33
2023-11-05T23:49:23.243Z,5.43
2023-11-05T23:51:54.992Z,4.20
2023-11-05T23:54:22.639Z,5.43
2023-11-05T23:56:50.374Z,3.77
2023-11-05T23:59:19.143Z,3.30
